KLM522A EDDF-EHAM
Flight info
| Callsign | KLM522A |
|---|---|
| Flight time | 0h 50m |
| Altitude | 24000 |
| Route | MARUN8M/25C MARUN Y152 ARPEG Z850 ABILU DCT NORKU |
| Aircraft | B738/M-SDE2E3FGHIRWXY/LB1 |
Departure
| Time | 2026-05-05 09:00 |
|---|---|
| Airport | Frankfurt Main Airport (EDDF) |
Arrival
| Time | 2026-05-05 09:51 |
|---|---|
| Airport | Amsterdam Airport Schiphol (EHAM) |
| Time | Latitude | Longitude | Altitude | Speed | Heading |
|---|---|---|---|---|---|
| 2026-05-05 08:23 | 50.04981 | 8.59150 | 346 ft | 0 kts | 159° |
| 2026-05-05 08:50 | 50.04999 | 8.59140 | 356 ft | 4 kts | 159° |
| 2026-05-05 08:51 | 50.05019 | 8.59128 | 351 ft | 4 kts | 178° |
| 2026-05-05 08:51 | 50.05034 | 8.59142 | 356 ft | 4 kts | 248° |
| 2026-05-05 08:51 | 50.05043 | 8.59178 | 356 ft | 2 kts | 249° |
| 2026-05-05 08:51 | 50.05044 | 8.59180 | 356 ft | 0 kts | 249° |
| 2026-05-05 08:55 | 50.05043 | 8.59180 | 349 ft | 0 kts | 249° |
| 2026-05-05 08:55 | 50.05039 | 8.59160 | 356 ft | 5 kts | 249° |
| 2026-05-05 08:56 | 50.05019 | 8.59080 | 352 ft | 10 kts | 250° |
| 2026-05-05 08:56 | 50.04994 | 8.58974 | 352 ft | 11 kts | 250° |
| 2026-05-05 08:56 | 50.04969 | 8.58867 | 350 ft | 10 kts | 250° |
| 2026-05-05 08:56 | 50.04945 | 8.58763 | 352 ft | 10 kts | 250° |
| 2026-05-05 08:57 | 50.04903 | 8.58685 | 345 ft | 10 kts | 189° |
| 2026-05-05 08:57 | 50.04837 | 8.58713 | 347 ft | 10 kts | 160° |
| 2026-05-05 08:57 | 50.04775 | 8.58748 | 349 ft | 9 kts | 159° |
| 2026-05-05 08:57 | 50.04712 | 8.58770 | 343 ft | 10 kts | 187° |
| 2026-05-05 08:58 | 50.04646 | 8.58757 | 343 ft | 9 kts | 187° |
| 2026-05-05 08:58 | 50.04629 | 8.58754 | 343 ft | 0 kts | 188° |
| 2026-05-05 08:59 | 50.04625 | 8.58753 | 343 ft | 2 kts | 188° |
| 2026-05-05 08:59 | 50.04589 | 8.58721 | 347 ft | 10 kts | 220° |
| 2026-05-05 08:59 | 50.04522 | 8.58633 | 343 ft | 14 kts | 220° |
| 2026-05-05 08:59 | 50.04475 | 8.58545 | 348 ft | 0 kts | 248° |
| 2026-05-05 09:00 | 50.04427 | 8.58349 | 351 ft | 60 kts | 249° |
| 2026-05-05 09:00 | 50.04181 | 8.57316 | 353 ft | 142 kts | 250° |
| 2026-05-05 09:00 | 50.03808 | 8.55636 | 758 ft | 173 kts | 252° |
| 2026-05-05 09:00 | 50.03416 | 8.53801 | 1528 ft | 187 kts | 251° |
| 2026-05-05 09:01 | 50.02936 | 8.51764 | 2074 ft | 212 kts | 248° |
| 2026-05-05 09:01 | 50.02175 | 8.49855 | 2888 ft | 209 kts | 219° |
| 2026-05-05 09:01 | 50.00878 | 8.48910 | 3762 ft | 205 kts | 195° |
| 2026-05-05 09:01 | 49.99489 | 8.48365 | 4645 ft | 206 kts | 194° |
| 2026-05-05 09:02 | 49.98100 | 8.47836 | 5591 ft | 205 kts | 194° |
| 2026-05-05 09:02 | 49.96708 | 8.47304 | 6403 ft | 208 kts | 194° |
| 2026-05-05 09:02 | 49.95264 | 8.46718 | 6801 ft | 227 kts | 196° |
| 2026-05-05 09:02 | 49.93667 | 8.45987 | 6847 ft | 243 kts | 197° |
| 2026-05-05 09:03 | 49.92180 | 8.44780 | 6849 ft | 245 kts | 223° |
| 2026-05-05 09:03 | 49.91261 | 8.42558 | 6860 ft | 251 kts | 250° |
| 2026-05-05 09:03 | 49.91065 | 8.39855 | 6855 ft | 257 kts | 274° |
| 2026-05-05 09:03 | 49.91642 | 8.37238 | 6863 ft | 262 kts | 303° |
| 2026-05-05 09:04 | 49.93035 | 8.35354 | 6893 ft | 278 kts | 330° |
| 2026-05-05 09:04 | 49.94803 | 8.34101 | 6889 ft | 287 kts | 336° |
| 2026-05-05 09:04 | 49.96666 | 8.32939 | 6883 ft | 288 kts | 337° |
| 2026-05-05 09:04 | 49.98516 | 8.31783 | 6868 ft | 286 kts | 336° |
| 2026-05-05 09:05 | 50.00378 | 8.30586 | 6872 ft | 285 kts | 336° |
| 2026-05-05 09:05 | 50.02193 | 8.29402 | 7063 ft | 289 kts | 335° |
| 2026-05-05 09:05 | 50.04081 | 8.28300 | 8011 ft | 292 kts | 347° |
| 2026-05-05 09:05 | 50.06104 | 8.28382 | 9122 ft | 293 kts | 13° |
| 2026-05-05 09:06 | 50.08071 | 8.29296 | 10170 ft | 296 kts | 18° |
| 2026-05-05 09:06 | 50.10081 | 8.30372 | 10682 ft | 320 kts | 19° |
| 2026-05-05 09:06 | 50.12282 | 8.31579 | 10911 ft | 350 kts | 19° |
| 2026-05-05 09:06 | 50.14645 | 8.32862 | 11438 ft | 365 kts | 19° |
| 2026-05-05 09:07 | 50.17070 | 8.34162 | 12259 ft | 372 kts | 18° |
| 2026-05-05 09:07 | 50.19543 | 8.35474 | 13181 ft | 377 kts | 18° |
| 2026-05-05 09:07 | 50.22050 | 8.36796 | 14041 ft | 383 kts | 18° |
| 2026-05-05 09:07 | 50.24593 | 8.38134 | 14864 ft | 389 kts | 18° |
| 2026-05-05 09:08 | 50.27178 | 8.39495 | 15705 ft | 395 kts | 18° |
| 2026-05-05 09:08 | 50.29795 | 8.40876 | 16533 ft | 400 kts | 18° |
| 2026-05-05 09:08 | 50.32447 | 8.42308 | 17364 ft | 406 kts | 18° |
| 2026-05-05 09:08 | 50.35141 | 8.43781 | 18179 ft | 411 kts | 18° |
| 2026-05-05 09:09 | 50.37844 | 8.45264 | 19001 ft | 413 kts | 18° |
| 2026-05-05 09:09 | 50.40573 | 8.46760 | 19768 ft | 417 kts | 18° |
| 2026-05-05 09:09 | 50.43333 | 8.48272 | 20489 ft | 422 kts | 18° |
| 2026-05-05 09:09 | 50.46123 | 8.49798 | 21203 ft | 427 kts | 18° |
| 2026-05-05 09:10 | 50.48944 | 8.51318 | 21938 ft | 431 kts | 17° |
| 2026-05-05 09:10 | 50.51821 | 8.52726 | 22658 ft | 435 kts | 15° |
| 2026-05-05 09:10 | 50.54735 | 8.54084 | 23357 ft | 439 kts | 15° |
| 2026-05-05 09:10 | 50.57680 | 8.55451 | 23830 ft | 444 kts | 15° |
| 2026-05-05 09:11 | 50.60665 | 8.56851 | 23858 ft | 454 kts | 15° |
| 2026-05-05 09:11 | 50.63669 | 8.58281 | 23875 ft | 464 kts | 15° |
| 2026-05-05 09:11 | 50.66808 | 8.59790 | 23870 ft | 470 kts | 15° |
| 2026-05-05 09:11 | 50.69932 | 8.61299 | 23865 ft | 468 kts | 15° |
| 2026-05-05 09:12 | 50.73038 | 8.62800 | 23864 ft | 468 kts | 15° |
| 2026-05-05 09:12 | 50.76159 | 8.64250 | 23862 ft | 466 kts | 11° |
| 2026-05-05 09:12 | 50.79372 | 8.64559 | 23870 ft | 460 kts | 351° |
| 2026-05-05 09:12 | 50.82435 | 8.63299 | 23893 ft | 455 kts | 335° |
| 2026-05-05 09:13 | 50.85199 | 8.60932 | 23861 ft | 450 kts | 321° |
| 2026-05-05 09:13 | 50.87480 | 8.57587 | 23874 ft | 444 kts | 308° |
| 2026-05-05 09:13 | 50.89470 | 8.53842 | 23868 ft | 444 kts | 307° |
| 2026-05-05 09:13 | 50.91422 | 8.50050 | 23859 ft | 444 kts | 306° |
| 2026-05-05 09:14 | 50.93384 | 8.46257 | 23863 ft | 445 kts | 307° |
| 2026-05-05 09:14 | 50.95370 | 8.42479 | 23867 ft | 446 kts | 307° |
| 2026-05-05 09:14 | 50.97370 | 8.38720 | 23866 ft | 447 kts | 308° |
| 2026-05-05 09:14 | 50.99383 | 8.34950 | 23864 ft | 447 kts | 308° |
| 2026-05-05 09:15 | 51.01532 | 8.31375 | 23865 ft | 450 kts | 316° |
| 2026-05-05 09:15 | 51.04024 | 8.28356 | 23875 ft | 453 kts | 326° |
| 2026-05-05 09:15 | 51.06784 | 8.25923 | 23875 ft | 453 kts | 330° |
| 2026-05-05 09:15 | 51.09574 | 8.23572 | 23869 ft | 453 kts | 330° |
| 2026-05-05 09:16 | 51.12305 | 8.21216 | 23867 ft | 452 kts | 329° |
| 2026-05-05 09:16 | 51.15053 | 8.18781 | 23860 ft | 452 kts | 328° |
| 2026-05-05 09:16 | 51.17785 | 8.16329 | 23864 ft | 451 kts | 328° |
| 2026-05-05 09:16 | 51.20512 | 8.13873 | 23868 ft | 451 kts | 328° |
| 2026-05-05 09:17 | 51.23254 | 8.11403 | 23867 ft | 451 kts | 328° |
| 2026-05-05 09:17 | 51.25980 | 8.08949 | 23894 ft | 451 kts | 329° |
| 2026-05-05 09:17 | 51.28717 | 8.06486 | 23880 ft | 452 kts | 329° |
| 2026-05-05 09:17 | 51.31454 | 8.04022 | 23885 ft | 450 kts | 328° |
| 2026-05-05 09:18 | 51.34183 | 8.01562 | 23880 ft | 449 kts | 328° |
| 2026-05-05 09:18 | 51.36896 | 7.99114 | 23881 ft | 447 kts | 328° |
| 2026-05-05 09:18 | 51.39605 | 7.96666 | 23881 ft | 446 kts | 328° |
| 2026-05-05 09:18 | 51.42259 | 7.94108 | 23878 ft | 444 kts | 323° |
| 2026-05-05 09:19 | 51.44777 | 7.91241 | 23888 ft | 443 kts | 321° |
| 2026-05-05 09:19 | 51.47243 | 7.88266 | 23889 ft | 443 kts | 320° |
| 2026-05-05 09:19 | 51.49692 | 7.85260 | 23887 ft | 444 kts | 320° |
| 2026-05-05 09:19 | 51.52153 | 7.82241 | 23889 ft | 445 kts | 320° |
| 2026-05-05 09:20 | 51.54586 | 7.79276 | 23884 ft | 445 kts | 321° |
| 2026-05-05 09:20 | 51.57057 | 7.76288 | 23895 ft | 444 kts | 320° |
| 2026-05-05 09:20 | 51.59522 | 7.73321 | 23887 ft | 442 kts | 320° |
| 2026-05-05 09:20 | 51.61993 | 7.70355 | 23884 ft | 441 kts | 321° |
| 2026-05-05 09:21 | 51.64450 | 7.67404 | 23894 ft | 440 kts | 321° |
| 2026-05-05 09:21 | 51.66904 | 7.64456 | 23893 ft | 440 kts | 321° |
| 2026-05-05 09:21 | 51.69360 | 7.61501 | 23894 ft | 440 kts | 321° |
| 2026-05-05 09:21 | 51.71816 | 7.58540 | 23894 ft | 440 kts | 321° |
| 2026-05-05 09:22 | 51.74267 | 7.55581 | 23883 ft | 440 kts | 321° |
| 2026-05-05 09:22 | 51.76718 | 7.52618 | 23896 ft | 440 kts | 321° |
| 2026-05-05 09:22 | 51.79166 | 7.49654 | 23912 ft | 440 kts | 321° |
| 2026-05-05 09:22 | 51.81610 | 7.46691 | 23934 ft | 440 kts | 320° |
| 2026-05-05 09:23 | 51.84058 | 7.43719 | 23916 ft | 439 kts | 320° |
| 2026-05-05 09:23 | 51.86491 | 7.40760 | 23917 ft | 438 kts | 320° |
| 2026-05-05 09:23 | 51.88925 | 7.37796 | 23917 ft | 437 kts | 320° |
| 2026-05-05 09:23 | 51.91360 | 7.34826 | 23920 ft | 437 kts | 320° |
| 2026-05-05 09:24 | 51.93783 | 7.31867 | 23929 ft | 437 kts | 320° |
| 2026-05-05 09:24 | 51.96208 | 7.28902 | 23929 ft | 437 kts | 320° |
| 2026-05-05 09:24 | 51.98608 | 7.25963 | 23921 ft | 437 kts | 320° |
| 2026-05-05 09:24 | 52.01039 | 7.22981 | 23917 ft | 436 kts | 320° |
| 2026-05-05 09:25 | 52.03463 | 7.20006 | 23921 ft | 436 kts | 320° |
| 2026-05-05 09:25 | 52.05875 | 7.17039 | 23924 ft | 436 kts | 320° |
| 2026-05-05 09:25 | 52.08290 | 7.14067 | 23937 ft | 435 kts | 320° |
| 2026-05-05 09:25 | 52.10709 | 7.11084 | 23930 ft | 435 kts | 320° |
| 2026-05-05 09:26 | 52.13117 | 7.08109 | 23930 ft | 435 kts | 320° |
| 2026-05-05 09:26 | 52.15532 | 7.05124 | 23930 ft | 435 kts | 320° |
| 2026-05-05 09:26 | 52.17934 | 7.02151 | 23936 ft | 435 kts | 320° |
| 2026-05-05 09:26 | 52.20339 | 6.99169 | 23934 ft | 435 kts | 320° |
| 2026-05-05 09:27 | 52.22625 | 6.95961 | 23926 ft | 431 kts | 310° |
| 2026-05-05 09:27 | 52.24526 | 6.92196 | 23944 ft | 429 kts | 305° |
| 2026-05-05 09:27 | 52.26347 | 6.88338 | 23939 ft | 431 kts | 305° |
| 2026-05-05 09:27 | 52.28189 | 6.84469 | 23937 ft | 432 kts | 306° |
| 2026-05-05 09:28 | 52.30061 | 6.80639 | 23933 ft | 432 kts | 306° |
| 2026-05-05 09:28 | 52.31959 | 6.76815 | 23940 ft | 432 kts | 307° |
| 2026-05-05 09:28 | 52.33858 | 6.73005 | 23959 ft | 433 kts | 307° |
| 2026-05-05 09:28 | 52.35761 | 6.69180 | 23950 ft | 433 kts | 307° |
| 2026-05-05 09:29 | 52.37662 | 6.65352 | 23947 ft | 434 kts | 306° |
| 2026-05-05 09:29 | 52.39564 | 6.61512 | 23941 ft | 434 kts | 306° |
| 2026-05-05 09:29 | 52.41466 | 6.57668 | 23941 ft | 434 kts | 306° |
| 2026-05-05 09:29 | 52.43361 | 6.53831 | 23944 ft | 434 kts | 306° |
| 2026-05-05 09:30 | 52.45251 | 6.49966 | 23943 ft | 433 kts | 304° |
| 2026-05-05 09:30 | 52.46691 | 6.45679 | 23777 ft | 429 kts | 289° |
| 2026-05-05 09:30 | 52.47281 | 6.40916 | 22956 ft | 425 kts | 274° |
| 2026-05-05 09:30 | 52.47492 | 6.36183 | 22092 ft | 416 kts | 273° |
| 2026-05-05 09:31 | 52.47683 | 6.31491 | 21232 ft | 409 kts | 273° |
| 2026-05-05 09:31 | 52.47880 | 6.26869 | 20361 ft | 404 kts | 273° |
| 2026-05-05 09:31 | 52.48088 | 6.22306 | 19515 ft | 399 kts | 274° |
| 2026-05-05 09:31 | 52.48303 | 6.17794 | 18688 ft | 395 kts | 274° |
| 2026-05-05 09:32 | 52.48520 | 6.13319 | 17797 ft | 392 kts | 274° |
| 2026-05-05 09:32 | 52.48736 | 6.08878 | 16900 ft | 388 kts | 274° |
| 2026-05-05 09:32 | 52.48946 | 6.04501 | 16065 ft | 383 kts | 274° |
| 2026-05-05 09:32 | 52.49152 | 6.00170 | 15236 ft | 379 kts | 274° |
| 2026-05-05 09:33 | 52.49354 | 5.95874 | 14397 ft | 375 kts | 274° |
| 2026-05-05 09:33 | 52.49552 | 5.91623 | 13580 ft | 372 kts | 274° |
| 2026-05-05 09:33 | 52.49747 | 5.87415 | 12718 ft | 369 kts | 274° |
| 2026-05-05 09:33 | 52.49940 | 5.83233 | 11894 ft | 365 kts | 274° |
| 2026-05-05 09:34 | 52.50129 | 5.79107 | 11110 ft | 361 kts | 274° |
| 2026-05-05 09:34 | 52.50314 | 5.75039 | 10622 ft | 350 kts | 274° |
| 2026-05-05 09:34 | 52.50490 | 5.71161 | 10468 ft | 331 kts | 274° |
| 2026-05-05 09:34 | 52.50655 | 5.67486 | 10320 ft | 314 kts | 274° |
| 2026-05-05 09:35 | 52.50808 | 5.64037 | 10187 ft | 300 kts | 274° |
| 2026-05-05 09:35 | 52.50895 | 5.57581 | 9931 ft | 265 kts | 255° |
| 2026-05-05 09:35 | 52.50140 | 5.54874 | 9771 ft | 261 kts | 237° |
| 2026-05-05 09:36 | 52.49039 | 5.52466 | 9580 ft | 267 kts | 232° |
| 2026-05-05 09:36 | 52.47841 | 5.50106 | 9367 ft | 272 kts | 230° |
| 2026-05-05 09:36 | 52.46614 | 5.47721 | 9161 ft | 274 kts | 230° |
| 2026-05-05 09:36 | 52.45407 | 5.45363 | 8921 ft | 263 kts | 231° |
| 2026-05-05 09:37 | 52.44268 | 5.43121 | 8712 ft | 249 kts | 232° |
| 2026-05-05 09:37 | 52.43187 | 5.40981 | 8535 ft | 239 kts | 232° |
| 2026-05-05 09:37 | 52.42138 | 5.38897 | 8353 ft | 235 kts | 232° |
| 2026-05-05 09:37 | 52.41109 | 5.36847 | 8180 ft | 231 kts | 231° |
| 2026-05-05 09:38 | 52.40088 | 5.34813 | 7997 ft | 230 kts | 232° |
| 2026-05-05 09:38 | 52.39089 | 5.32819 | 7834 ft | 229 kts | 231° |
| 2026-05-05 09:38 | 52.38077 | 5.30804 | 7664 ft | 229 kts | 231° |
| 2026-05-05 09:38 | 52.37065 | 5.28791 | 7494 ft | 229 kts | 231° |
| 2026-05-05 09:39 | 52.36047 | 5.26768 | 7310 ft | 230 kts | 231° |
| 2026-05-05 09:39 | 52.35030 | 5.24748 | 7134 ft | 231 kts | 231° |
| 2026-05-05 09:39 | 52.34351 | 5.23399 | 7023 ft | 231 kts | 231° |
| 2026-05-05 09:39 | 52.32982 | 5.20684 | 6779 ft | 232 kts | 231° |
| 2026-05-05 09:40 | 52.32299 | 5.19330 | 6663 ft | 232 kts | 231° |
| 2026-05-05 09:40 | 52.31270 | 5.17292 | 6483 ft | 233 kts | 231° |
| 2026-05-05 09:40 | 52.30239 | 5.15251 | 6300 ft | 232 kts | 231° |
| 2026-05-05 09:40 | 52.29213 | 5.13219 | 6101 ft | 232 kts | 231° |
| 2026-05-05 09:41 | 52.28188 | 5.11192 | 5920 ft | 230 kts | 231° |
| 2026-05-05 09:41 | 52.27171 | 5.09185 | 5769 ft | 228 kts | 231° |
| 2026-05-05 09:41 | 52.25841 | 5.06562 | 5557 ft | 226 kts | 231° |
| 2026-05-05 09:41 | 52.25165 | 5.05232 | 5443 ft | 225 kts | 231° |
| 2026-05-05 09:42 | 52.24063 | 5.03457 | 5261 ft | 222 kts | 213° |
| 2026-05-05 09:42 | 52.22748 | 5.02222 | 5107 ft | 215 kts | 211° |
| 2026-05-05 09:42 | 52.21473 | 5.01023 | 4929 ft | 206 kts | 211° |
| 2026-05-05 09:42 | 52.20267 | 4.99873 | 4764 ft | 196 kts | 211° |
| 2026-05-05 09:43 | 52.19133 | 4.98784 | 4647 ft | 187 kts | 211° |
| 2026-05-05 09:43 | 52.18050 | 4.97737 | 4503 ft | 179 kts | 211° |
| 2026-05-05 09:43 | 52.16969 | 4.96689 | 4398 ft | 181 kts | 211° |
| 2026-05-05 09:43 | 52.15895 | 4.95646 | 4271 ft | 178 kts | 211° |
| 2026-05-05 09:44 | 52.14836 | 4.94619 | 4116 ft | 177 kts | 211° |
| 2026-05-05 09:44 | 52.13781 | 4.93594 | 3962 ft | 176 kts | 210° |
| 2026-05-05 09:44 | 52.12743 | 4.92587 | 3826 ft | 169 kts | 210° |
| 2026-05-05 09:44 | 52.11765 | 4.91636 | 3674 ft | 157 kts | 211° |
| 2026-05-05 09:45 | 52.11120 | 4.90366 | 3522 ft | 144 kts | 264° |
| 2026-05-05 09:45 | 52.11164 | 4.88442 | 3689 ft | 193 kts | 273° |
| 2026-05-05 09:45 | 52.11147 | 4.86137 | 3378 ft | 210 kts | 271° |
| 2026-05-05 09:45 | 52.11121 | 4.83827 | 3151 ft | 198 kts | 272° |
| 2026-05-05 09:46 | 52.11094 | 4.81665 | 2980 ft | 184 kts | 274° |
| 2026-05-05 09:46 | 52.11513 | 4.79897 | 2831 ft | 163 kts | 327° |
| 2026-05-05 09:46 | 52.12480 | 4.78991 | 2773 ft | 163 kts | 337° |
| 2026-05-05 09:46 | 52.13479 | 4.78162 | 2640 ft | 163 kts | 338° |
| 2026-05-05 09:47 | 52.14484 | 4.77334 | 2495 ft | 162 kts | 339° |
| 2026-05-05 09:47 | 52.15498 | 4.76573 | 2358 ft | 158 kts | 352° |
| 2026-05-05 09:47 | 52.16548 | 4.76606 | 2272 ft | 149 kts | 8° |
| 2026-05-05 09:47 | 52.17523 | 4.76678 | 2171 ft | 131 kts | 6° |
| 2026-05-05 09:48 | 52.18430 | 4.76749 | 2074 ft | 128 kts | 8° |
| 2026-05-05 09:48 | 52.19359 | 4.76834 | 1950 ft | 133 kts | 8° |
| 2026-05-05 09:48 | 52.20239 | 4.76913 | 1795 ft | 123 kts | 8° |
| 2026-05-05 09:48 | 52.21074 | 4.76989 | 1641 ft | 117 kts | 9° |
| 2026-05-05 09:49 | 52.21893 | 4.77068 | 1468 ft | 120 kts | 8° |
| 2026-05-05 09:49 | 52.22748 | 4.77148 | 1309 ft | 126 kts | 7° |
| 2026-05-05 09:49 | 52.23611 | 4.77226 | 1143 ft | 122 kts | 8° |
| 2026-05-05 09:49 | 52.24471 | 4.77307 | 966 ft | 124 kts | 8° |
| 2026-05-05 09:50 | 52.25338 | 4.77387 | 781 ft | 126 kts | 8° |
| 2026-05-05 09:50 | 52.26213 | 4.77469 | 618 ft | 128 kts | 8° |
| 2026-05-05 09:50 | 52.27115 | 4.77551 | 420 ft | 126 kts | 8° |
| 2026-05-05 09:50 | 52.27980 | 4.77632 | 254 ft | 126 kts | 8° |
| 2026-05-05 09:51 | 52.28845 | 4.77713 | 91 ft | 124 kts | 9° |
| 2026-05-05 09:51 | 52.29695 | 4.77800 | -7 ft | 105 kts | 4° |
| 2026-05-05 09:51 | 52.30170 | 4.77836 | -2 ft | 44 kts | 1° |
| 2026-05-05 09:51 | 52.30390 | 4.77826 | 1 ft | 26 kts | 346° |
| 2026-05-05 09:52 | 52.30497 | 4.77749 | 0 ft | 14 kts | 332° |
| 2026-05-05 09:52 | 52.30583 | 4.77677 | -3 ft | 16 kts | 333° |
| 2026-05-05 09:52 | 52.30627 | 4.77641 | -3 ft | 4 kts | 334° |
| 2026-05-05 09:52 | 52.30660 | 4.77614 | -3 ft | 7 kts | 335° |
| 2026-05-05 09:53 | 52.30715 | 4.77595 | -3 ft | 9 kts | 3° |
| 2026-05-05 09:53 | 52.30779 | 4.77601 | -3 ft | 10 kts | 4° |
| 2026-05-05 09:53 | 52.30834 | 4.77566 | -3 ft | 2 kts | 294° |
| 2026-05-05 09:53 | 52.30837 | 4.77536 | -3 ft | 4 kts | 276° |
| 2026-05-05 09:54 | 52.30854 | 4.77479 | -3 ft | 7 kts | 323° |
| 2026-05-05 09:54 | 52.30909 | 4.77475 | -3 ft | 8 kts | 3° |
| 2026-05-05 09:54 | 52.30969 | 4.77481 | -3 ft | 9 kts | 4° |
| 2026-05-05 09:54 | 52.31033 | 4.77488 | -3 ft | 9 kts | 357° |
| 2026-05-05 09:55 | 52.31077 | 4.77425 | -3 ft | 9 kts | 275° |
| 2026-05-05 09:55 | 52.31041 | 4.77361 | -3 ft | 9 kts | 182° |
| 2026-05-05 09:55 | 52.30990 | 4.77356 | -3 ft | 6 kts | 184° |
| 2026-05-05 09:55 | 52.30985 | 4.77356 | -3 ft | 0 kts | 184° |